Time;durP1;ratioP1;P1;durP2;ratioP2;P2;SDS_P1;SDS_P2;PMS_P1;PMS_P2;Temp;Humidity;BMP_temperature;BMP_pressure;BME280_temperature;BME280_humidity;BME280_pressure;Samples;Min_cycle;Max_cycle;Signal;HPM_P1;HPM_P2
2024/02/14 00:00:13;;;;;;;8.07;3.88;;;8.50;4.70;;;;;;5075431;28;20521;-71
2024/02/14 00:02:40;;;;;;;8.68;4.10;;;8.50;6.50;;;;;;5075754;28;20112;-71
2024/02/14 00:05:07;;;;;;;7.00;4.00;;;8.50;9.90;;;;;;5075627;28;20133;-71
2024/02/14 00:07:33;;;;;;;12.45;3.90;;;8.50;11.90;;;;;;5076018;28;20486;-71
2024/02/14 00:09:58;;;;;;;9.48;4.40;;;8.60;15.60;;;;;;5075741;28;20042;-71
2024/02/14 00:12:24;;;;;;;7.63;3.50;;;8.60;14.40;;;;;;5075733;28;20500;-71
2024/02/14 00:14:50;;;;;;;5.80;3.60;;;8.60;17.50;;;;;;5075332;28;20025;-71
2024/02/14 00:17:16;;;;;;;8.40;4.22;;;8.60;18.40;;;;;;5075087;28;20021;-71
2024/02/14 00:19:41;;;;;;;6.15;3.53;;;8.60;22.30;;;;;;5074406;28;20540;-70
2024/02/14 00:22:07;;;;;;;9.55;3.80;;;8.60;24.80;;;;;;5075306;28;20108;-70
2024/02/14 00:24:33;;;;;;;7.65;3.33;;;8.60;23.80;;;;;;5075119;28;20491;-71
2024/02/14 00:27:00;;;;;;;6.72;3.70;;;8.60;27.50;;;;;;5075070;28;20432;-70
2024/02/14 00:29:26;;;;;;;6.22;3.63;;;8.60;29.20;;;;;;5075358;28;20406;-69
2024/02/14 00:31:52;;;;;;;9.20;3.63;;;8.60;32.30;;;;;;5075402;28;20386;-70
2024/02/14 00:34:17;;;;;;;7.90;3.63;;;8.60;32.60;;;;;;5074796;28;20029;-71
2024/02/14 00:36:43;;;;;;;7.88;3.42;;;8.60;34.70;;;;;;5074858;28;20052;-71
2024/02/14 00:39:09;;;;;;;5.68;3.83;;;8.60;39.20;;;;;;5075166;28;20036;-71
2024/02/14 00:41:35;;;;;;;5.75;3.33;;;8.50;38.40;;;;;;5074965;28;20024;-70
2024/02/14 00:44:02;;;;;;;6.97;3.40;;;8.60;42.20;;;;;;5074789;28;20112;-71
2024/02/14 00:46:29;;;;;;;7.30;3.40;;;8.60;42.00;;;;;;5075083;28;20033;-71
2024/02/14 00:48:54;;;;;;;8.85;3.95;;;8.60;44.40;;;;;;5074898;28;20384;-71
2024/02/14 00:51:21;;;;;;;7.80;3.38;;;8.50;47.50;;;;;;5074552;28;20031;-71
2024/02/14 00:53:47;;;;;;;7.60;3.65;;;8.50;49.30;;;;;;5074848;28;20033;-71
2024/02/14 00:56:12;;;;;;;6.40;3.80;;;8.50;57.60;;;;;;5074804;28;20508;-71
2024/02/14 00:58:39;;;;;;;6.43;3.60;;;8.50;64.00;;;;;;5074578;28;20033;-71
2024/02/14 01:01:05;;;;;;;8.38;3.88;;;8.40;77.20;;;;;;5074287;28;20048;-71
2024/02/14 01:03:31;;;;;;;8.23;3.97;;;8.40;79.20;;;;;;5074620;28;20059;-71
2024/02/14 01:05:57;;;;;;;10.95;4.57;;;8.40;85.80;;;;;;5074416;28;20032;-70
2024/02/14 01:08:22;;;;;;;7.60;3.90;;;8.30;90.10;;;;;;5074294;28;20120;-71
2024/02/14 01:10:50;;;;;;;6.80;3.58;;;8.30;91.10;;;;;;5074421;28;20035;-71
2024/02/14 01:13:15;;;;;;;8.20;3.67;;;8.30;92.60;;;;;;5074345;28;20149;-70
2024/02/14 01:15:41;;;;;;;9.07;4.32;;;8.30;92.00;;;;;;5074402;28;20028;-71
2024/02/14 01:18:07;;;;;;;10.05;4.50;;;8.30;95.50;;;;;;5074444;28;20033;-71
2024/02/14 01:20:32;;;;;;;11.55;4.05;;;8.30;93.20;;;;;;5074385;28;20107;-71
2024/02/14 01:22:59;;;;;;;9.60;4.30;;;8.30;96.00;;;;;;5074071;28;20118;-71
2024/02/14 01:25:26;;;;;;;10.20;4.68;;;8.30;92.50;;;;;;5074329;28;20379;-71
2024/02/14 01:27:54;;;;;;;7.40;3.90;;;8.40;91.00;;;;;;5074180;28;20017;-72
2024/02/14 01:30:19;;;;;;;5.63;3.63;;;8.30;93.40;;;;;;5073846;28;20039;-71
2024/02/14 01:32:45;;;;;;;8.93;3.88;;;8.40;86.90;;;;;;5074105;28;20476;-71
2024/02/14 01:35:11;;;;;;;5.13;3.35;;;8.40;87.90;;;;;;5073881;28;20073;-71
2024/02/14 01:37:36;;;;;;;7.93;3.45;;;8.40;83.10;;;;;;5073800;28;20065;-71
2024/02/14 01:40:03;;;;;;;7.57;3.28;;;8.40;80.70;;;;;;5074046;28;20501;-71
2024/02/14 01:42:28;;;;;;;6.63;3.42;;;8.40;78.50;;;;;;5073931;28;20028;-70
2024/02/14 01:44:54;;;;;;;6.53;3.00;;;8.40;72.60;;;;;;5073618;28;20032;-71
2024/02/14 01:47:20;;;;;;;4.50;2.83;;;8.40;74.40;;;;;;5073495;28;20021;-71
2024/02/14 01:49:47;;;;;;;7.20;2.78;;;8.40;75.90;;;;;;5073824;28;20024;-71
2024/02/14 01:52:14;;;;;;;5.82;2.92;;;8.50;73.30;;;;;;5073426;28;20044;-71
2024/02/14 01:54:40;;;;;;;6.88;3.08;;;8.50;71.30;;;;;;5073855;28;20039;-71
2024/02/14 01:57:08;;;;;;;7.22;2.88;;;8.50;74.80;;;;;;5073452;28;20047;-70
2024/02/14 01:59:35;;;;;;;6.18;2.90;;;8.50;70.40;;;;;;5073766;28;20445;-70
2024/02/14 02:02:02;;;;;;;6.13;2.78;;;8.50;68.30;;;;;;5073360;28;20049;-70
2024/02/14 02:04:27;;;;;;;6.28;3.00;;;8.60;65.40;;;;;;5073439;28;20037;-70
2024/02/14 02:06:56;;;;;;;7.55;3.60;;;8.60;69.40;;;;;;5073690;28;20478;-71
2024/02/14 02:09:22;;;;;;;5.60;2.75;;;8.60;68.70;;;;;;5073264;28;20025;-70
2024/02/14 02:11:49;;;;;;;7.18;3.00;;;8.60;72.00;;;;;;5073570;28;20020;-71
2024/02/14 02:14:16;;;;;;;6.72;3.20;;;8.50;74.80;;;;;;5073551;28;20028;-71
2024/02/14 02:16:42;;;;;;;8.90;2.55;;;8.50;71.20;;;;;;5073537;28;20036;-71
2024/02/14 02:19:09;;;;;;;6.13;2.65;;;8.50;73.50;;;;;;5073151;28;20478;-70
2024/02/14 02:21:36;;;;;;;5.25;3.10;;;8.50;77.00;;;;;;5073324;28;20107;-70
2024/02/14 02:24:02;;;;;;;6.70;3.20;;;8.50;73.70;;;;;;5073258;28;20028;-70
2024/02/14 02:26:27;;;;;;;7.22;3.28;;;8.50;78.00;;;;;;5073379;28;20398;-70
2024/02/14 02:28:53;;;;;;;5.28;2.85;;;8.60;76.10;;;;;;5073248;28;20031;-71
2024/02/14 02:31:20;;;;;;;5.88;2.83;;;8.60;75.40;;;;;;5073230;28;20021;-71
2024/02/14 02:33:46;;;;;;;7.07;2.80;;;8.60;79.30;;;;;;5073091;28;20036;-71
2024/02/14 02:36:11;;;;;;;7.32;3.03;;;8.60;84.20;;;;;;5073475;28;20090;-71
2024/02/14 02:38:37;;;;;;;5.57;2.85;;;8.60;87.30;;;;;;5073206;28;20097;-71
2024/02/14 02:41:06;;;;;;;10.07;2.75;;;8.60;89.40;;;;;;5073365;28;20082;-71
2024/02/14 02:43:32;;;;;;;7.88;2.72;;;8.60;90.30;;;;;;5075548;28;20180;-70
2024/02/14 02:45:57;;;;;;;5.22;3.25;;;8.60;92.10;;;;;;5077307;28;20042;-71
2024/02/14 02:48:23;;;;;;;4.32;2.78;;;8.60;93.50;;;;;;5077294;28;20482;-71
2024/02/14 02:50:50;;;;;;;6.28;2.92;;;8.60;94.00;;;;;;5076952;28;20025;-71
2024/02/14 02:53:16;;;;;;;8.48;3.17;;;8.60;95.90;;;;;;5077216;28;20021;-71
2024/02/14 02:55:42;;;;;;;7.38;3.17;;;8.70;96.80;;;;;;5077029;28;20028;-71
2024/02/14 02:58:07;;;;;;;5.47;2.92;;;8.70;97.50;;;;;;5077059;28;20051;-72
2024/02/14 03:00:33;;;;;;;5.22;3.03;;;8.70;99.70;;;;;;5076777;28;20185;-70
2024/02/14 03:02:59;;;;;;;6.20;3.15;;;8.70;99.90;;;;;;5076948;28;20036;-71
2024/02/14 03:05:25;;;;;;;8.73;3.65;;;8.70;99.90;;;;;;5076713;28;20386;-70
2024/02/14 03:07:52;;;;;;;4.28;2.92;;;8.70;99.90;;;;;;5076808;28;20020;-71
2024/02/14 03:10:19;;;;;;;6.43;3.00;;;8.80;99.90;;;;;;5076758;28;20021;-70
2024/02/14 03:12:47;;;;;;;6.15;2.90;;;8.70;99.90;;;;;;5076564;28;20389;-70
2024/02/14 03:15:13;;;;;;;5.63;3.45;;;8.70;99.90;;;;;;5076730;28;20020;-71
2024/02/14 03:17:39;;;;;;;5.55;3.08;;;8.80;99.90;;;;;;5076742;28;20024;-71
2024/02/14 03:20:13;;;;;;;3.42;2.85;;;8.80;99.90;;;;;;5076673;28;20115;-70
2024/02/14 03:22:44;;;;;;;8.25;3.00;;;8.80;99.90;;;;;;5076474;28;20028;-70
2024/02/14 03:25:18;;;;;;;4.07;2.88;;;8.80;99.90;;;;;;5076552;28;20024;-71
2024/02/14 03:27:47;;;;;;;8.55;3.65;;;8.80;99.90;;;;;;5076545;28;20032;-70
2024/02/14 03:30:16;;;;;;;4.05;2.92;;;8.80;99.90;;;;;;5076375;28;20024;-71
2024/02/14 03:32:43;;;;;;;4.68;2.78;;;8.80;99.90;;;;;;5076288;28;20070;-70
2024/02/14 03:35:10;;;;;;;5.13;3.17;;;8.80;99.90;;;;;;5076029;28;20025;-70
2024/02/14 03:37:39;;;;;;;7.40;3.00;;;8.80;99.90;;;;;;5075941;28;20474;-71
2024/02/14 03:40:05;;;;;;;7.70;3.40;;;8.80;99.90;;;;;;5076486;28;20505;-70
2024/02/14 03:42:31;;;;;;;4.45;3.13;;;8.80;99.90;;;;;;5076138;28;20134;-70
2024/02/14 03:45:02;;;;;;;4.95;3.33;;;8.80;99.90;;;;;;5075807;28;20029;-70
2024/02/14 03:47:29;;;;;;;4.30;3.50;;;8.80;99.90;;;;;;5074689;28;20484;-70
2024/02/14 03:49:55;;;;;;;7.60;3.53;;;8.80;99.90;;;;;;5076201;28;20530;-70
2024/02/14 03:52:22;;;;;;;3.70;3.20;;;8.80;99.90;;;;;;5076036;28;20056;-70
2024/02/14 03:54:48;;;;;;;6.10;3.47;;;8.80;99.90;;;;;;5075584;28;20039;-70
2024/02/14 03:57:13;;;;;;;9.05;3.53;;;8.80;99.90;;;;;;5075903;28;20033;-70
2024/02/14 03:59:39;;;;;;;5.47;3.65;;;8.80;99.90;;;;;;5075853;28;20024;-70
2024/02/14 04:02:09;;;;;;;5.82;3.88;;;8.80;99.90;;;;;;5075631;28;20502;-70
2024/02/14 04:04:36;;;;;;;6.18;3.40;;;8.70;99.90;;;;;;5075749;28;20086;-70
2024/02/14 04:07:03;;;;;;;6.28;3.60;;;8.70;99.90;;;;;;5075478;28;20029;-69
2024/02/14 04:09:28;;;;;;;7.07;3.65;;;8.70;99.90;;;;;;5075875;28;20390;-70
2024/02/14 04:11:54;;;;;;;6.22;3.38;;;8.70;99.90;;;;;;5075860;28;20032;-70
2024/02/14 04:14:21;;;;;;;5.45;3.83;;;8.70;99.90;;;;;;5075535;28;20486;-70
2024/02/14 04:16:46;;;;;;;6.65;3.75;;;8.60;99.90;;;;;;5075786;28;20487;-70
2024/02/14 04:19:12;;;;;;;6.65;4.35;;;8.60;99.90;;;;;;5075675;28;20109;-70
2024/02/14 04:21:38;;;;;;;4.03;3.58;;;8.70;99.90;;;;;;5075402;28;20024;-70
2024/02/14 04:24:04;;;;;;;4.43;3.05;;;8.70;99.90;;;;;;5075421;28;20024;-70
2024/02/14 04:26:30;;;;;;;4.80;3.03;;;8.70;99.90;;;;;;5075471;28;20398;-70
2024/02/14 04:28:55;;;;;;;4.90;3.80;;;8.70;99.90;;;;;;5075615;28;20032;-70
2024/02/14 04:31:21;;;;;;;3.53;3.13;;;8.70;99.90;;;;;;5075231;28;20017;-70
2024/02/14 04:33:51;;;;;;;5.50;3.22;;;8.70;99.90;;;;;;5075430;28;20066;-70
2024/02/14 04:36:19;;;;;;;5.53;3.88;;;8.70;99.90;;;;;;5075407;28;20447;-70
2024/02/14 04:38:47;;;;;;;7.75;3.88;;;8.70;99.90;;;;;;5075184;28;20052;-70
2024/02/14 04:41:14;;;;;;;4.80;3.75;;;8.70;99.90;;;;;;5074805;28;20025;-70
2024/02/14 04:43:40;;;;;;;5.22;3.15;;;8.70;99.90;;;;;;5074967;28;20024;-70
2024/02/14 04:46:07;;;;;;;5.15;3.92;;;8.70;99.90;;;;;;5074945;28;20099;-70
2024/02/14 04:48:34;;;;;;;6.32;3.85;;;8.80;99.90;;;;;;5074922;28;20021;-70
2024/02/14 04:50:59;;;;;;;4.45;3.00;;;8.80;99.90;;;;;;5075085;28;20543;-70
2024/02/14 04:53:25;;;;;;;5.18;3.10;;;8.80;99.90;;;;;;5075159;28;20040;-70
2024/02/14 04:55:51;;;;;;;5.88;3.30;;;8.90;99.90;;;;;;5074767;28;20394;-70
2024/02/14 04:58:16;;;;;;;5.20;3.35;;;8.90;99.90;;;;;;5074872;28;20024;-70
2024/02/14 05:00:42;;;;;;;5.40;3.38;;;8.90;99.90;;;;;;5074621;28;20048;-70
2024/02/14 05:03:10;;;;;;;7.50;3.58;;;9.00;99.90;;;;;;5074554;28;20043;-70
2024/02/14 05:05:35;;;;;;;7.40;3.33;;;9.00;99.90;;;;;;5074295;28;20145;-70
2024/02/14 05:08:02;;;;;;;6.35;3.63;;;9.00;99.90;;;;;;5074794;28;20446;-69
2024/02/14 05:10:28;;;;;;;4.75;3.53;;;9.10;99.90;;;;;;5074758;28;20051;-70
2024/02/14 05:12:54;;;;;;;7.20;4.45;;;9.10;99.90;;;;;;5074519;28;20028;-70
2024/02/14 05:15:20;;;;;;;7.63;4.03;;;9.10;99.90;;;;;;5074351;28;20028;-69
2024/02/14 05:17:46;;;;;;;5.60;4.63;;;9.10;99.90;;;;;;5074016;28;20112;-70
2024/02/14 05:20:12;;;;;;;6.28;4.53;;;9.00;99.90;;;;;;5073947;28;20048;-70
2024/02/14 05:22:38;;;;;;;7.10;5.15;;;8.90;99.90;;;;;;5074442;28;20082;-70
2024/02/14 05:25:07;;;;;;;7.75;5.47;;;8.90;99.90;;;;;;5074004;28;20031;-70
2024/02/14 05:27:33;;;;;;;8.98;6.40;;;8.80;99.90;;;;;;5074329;28;20031;-70
2024/02/14 05:29:58;;;;;;;6.88;5.80;;;8.70;99.90;;;;;;5074016;28;20035;-70
2024/02/14 05:32:24;;;;;;;12.45;7.28;;;8.70;99.90;;;;;;5073779;28;20070;-71
2024/02/14 05:34:51;;;;;;;10.70;7.75;;;8.70;99.90;;;;;;5073883;28;20036;-71
2024/02/14 05:37:16;;;;;;;10.40;7.65;;;8.70;99.90;;;;;;5074150;28;20440;-70
2024/02/14 05:39:42;;;;;;;12.75;8.20;;;8.70;99.90;;;;;;5074171;28;20020;-71
2024/02/14 05:42:08;;;;;;;16.38;9.18;;;8.70;99.90;;;;;;5073883;28;20055;-70
2024/02/14 05:44:34;;;;;;;12.57;8.82;;;8.70;99.90;;;;;;5073732;28;20085;-70
2024/02/14 05:47:00;;;;;;;14.02;9.15;;;8.70;99.90;;;;;;5073952;28;20457;-71
2024/02/14 05:49:26;;;;;;;17.80;10.07;;;8.70;99.90;;;;;;5073887;28;20028;-70
2024/02/14 05:51:53;;;;;;;15.77;10.07;;;8.70;99.90;;;;;;5073877;28;20035;-69
2024/02/14 05:54:19;;;;;;;15.32;10.48;;;8.70;99.90;;;;;;5073764;28;20033;-70
2024/02/14 05:56:46;;;;;;;15.55;10.98;;;8.70;99.90;;;;;;5073995;28;20478;-70
2024/02/14 05:59:11;;;;;;;19.65;11.45;;;8.80;99.90;;;;;;5073773;28;20025;-70
2024/02/14 06:01:37;;;;;;;15.25;9.85;;;8.80;99.90;;;;;;5073341;28;20052;-70
2024/02/14 06:04:03;;;;;;;15.35;10.68;;;8.80;99.90;;;;;;5073480;28;20032;-69
2024/02/14 06:06:28;;;;;;;13.90;10.10;;;8.90;99.90;;;;;;5073473;28;20100;-69
2024/02/14 06:08:55;;;;;;;15.40;10.10;;;8.90;99.90;;;;;;5073605;28;20017;-70
2024/02/14 06:11:21;;;;;;;12.88;9.65;;;8.80;99.90;;;;;;5073183;28;20390;-69
2024/02/14 06:13:48;;;;;;;15.68;10.50;;;8.90;99.90;;;;;;5073507;28;20065;-69
2024/02/14 06:16:13;;;;;;;15.57;10.07;;;8.90;99.90;;;;;;5073501;28;20024;-69
2024/02/14 06:18:39;;;;;;;15.13;10.40;;;8.90;99.90;;;;;;5072568;28;20084;-69
2024/02/14 06:21:06;;;;;;;19.48;11.25;;;8.90;99.90;;;;;;5073234;28;20551;-70
2024/02/14 06:23:31;;;;;;;14.90;10.75;;;8.90;99.90;;;;;;5073340;28;20390;-69
2024/02/14 06:25:58;;;;;;;18.70;11.27;;;8.90;99.90;;;;;;5073404;28;20029;-70
2024/02/14 06:28:24;;;;;;;16.27;10.88;;;8.90;99.90;;;;;;5073161;28;20534;-70
2024/02/14 06:30:50;;;;;;;18.23;12.52;;;8.90;99.90;;;;;;5073272;28;20110;-70
2024/02/14 06:33:16;;;;;;;19.27;12.23;;;8.90;99.90;;;;;;5073384;28;20479;-70
2024/02/14 06:35:41;;;;;;;19.85;13.02;;;8.90;99.90;;;;;;5073279;28;20032;-70
2024/02/14 06:38:07;;;;;;;18.02;12.85;;;8.90;99.90;;;;;;5073061;28;20375;-70
2024/02/14 06:40:33;;;;;;;19.85;12.55;;;8.90;99.90;;;;;;5072907;28;20035;-71
2024/02/14 06:42:59;;;;;;;17.80;11.65;;;8.90;99.90;;;;;;5073084;28;20127;-70
2024/02/14 06:45:27;;;;;;;22.73;12.10;;;8.90;99.90;;;;;;5073126;28;20475;-70
2024/02/14 06:47:53;;;;;;;18.08;11.60;;;8.90;99.90;;;;;;5073104;28;20029;-70
2024/02/14 06:50:18;;;;;;;19.85;13.10;;;8.80;99.90;;;;;;5073066;28;20505;-71
2024/02/14 06:52:44;;;;;;;18.27;12.05;;;8.90;99.90;;;;;;5073233;28;20097;-71
2024/02/14 06:55:10;;;;;;;17.77;12.30;;;8.90;99.90;;;;;;5073151;28;20031;-71
2024/02/14 06:57:35;;;;;;;21.02;13.35;;;8.90;99.90;;;;;;5073208;28;20402;-70
2024/02/14 07:00:05;;;;;;;19.48;13.40;;;8.90;99.90;;;;;;5072874;28;20482;-70
2024/02/14 07:02:31;;;;;;;26.80;12.80;;;8.90;99.90;;;;;;5072623;28;20043;-71
2024/02/14 07:04:57;;;;;;;19.02;12.40;;;8.90;99.90;;;;;;5072684;28;20491;-70
2024/02/14 07:07:22;;;;;;;21.85;14.00;;;8.90;99.90;;;;;;5072272;28;20048;-70
2024/02/14 07:09:48;;;;;;;21.15;13.32;;;8.90;99.90;;;;;;5072594;28;20024;-71
2024/02/14 07:12:14;;;;;;;22.98;13.38;;;8.90;99.90;;;;;;5072708;28;20028;-70
2024/02/14 07:14:40;;;;;;;21.42;14.57;;;8.90;99.90;;;;;;5072415;28;20033;-71
2024/02/14 07:17:06;;;;;;;20.95;14.18;;;9.00;99.90;;;;;;5072470;28;20035;-71
2024/02/14 07:19:31;;;;;;;21.35;12.93;;;9.00;99.90;;;;;;5072949;28;20117;-71
2024/02/14 07:21:57;;;;;;;20.00;13.05;;;9.00;99.90;;;;;;5072960;28;20032;-71
2024/02/14 07:24:23;;;;;;;20.35;12.55;;;9.00;99.90;;;;;;5072432;28;20119;-70
2024/02/14 07:26:48;;;;;;;22.95;12.45;;;9.00;99.90;;;;;;5072275;28;20415;-71
2024/02/14 07:29:14;;;;;;;19.90;11.77;;;9.00;99.90;;;;;;5073950;28;20162;-71
2024/02/14 07:31:39;;;;;;;16.35;12.25;;;9.00;99.90;;;;;;5076381;28;20037;-71
2024/02/14 07:34:05;;;;;;;21.05;12.07;;;9.00;99.90;;;;;;5074465;28;20056;-71
2024/02/14 07:36:32;;;;;;;23.88;13.73;;;9.00;99.90;;;;;;5075872;28;20037;-72
2024/02/14 07:38:57;;;;;;;18.45;12.52;;;9.00;99.90;;;;;;5075932;28;20111;-71
2024/02/14 07:41:23;;;;;;;16.58;11.38;;;9.10;99.90;;;;;;5076131;28;20529;-72
2024/02/14 07:43:49;;;;;;;18.27;12.60;;;9.10;99.90;;;;;;5074966;28;20021;-72
2024/02/14 07:46:22;;;;;;;19.67;13.13;;;9.10;99.90;;;;;;5075971;28;20024;-71
2024/02/14 07:48:48;;;;;;;17.13;11.90;;;9.10;99.90;;;;;;5075901;28;20036;-71
2024/02/14 07:51:14;;;;;;;16.85;11.20;;;9.20;99.90;;;;;;5075495;28;20054;-71
2024/02/14 07:53:40;;;;;;;19.02;11.82;;;9.20;99.90;;;;;;5075906;28;20032;-71
2024/02/14 07:56:06;;;;;;;18.45;11.80;;;9.10;99.90;;;;;;5075967;28;21448;-71
2024/02/14 07:58:31;;;;;;;17.80;12.27;;;9.10;99.90;;;;;;5075930;28;20032;-71
2024/02/14 08:00:57;;;;;;;17.88;11.85;;;9.10;99.90;;;;;;5075204;28;20517;-71
2024/02/14 08:03:24;;;;;;;20.58;11.90;;;9.20;99.90;;;;;;5075392;28;20124;-71
2024/02/14 08:05:51;;;;;;;18.92;12.13;;;9.20;99.90;;;;;;5075224;28;20116;-71
2024/02/14 08:08:16;;;;;;;18.98;12.68;;;9.20;99.90;;;;;;5075259;28;20431;-72
2024/02/14 08:10:42;;;;;;;19.02;11.80;;;9.20;99.90;;;;;;5075175;28;20025;-70
2024/02/14 08:13:07;;;;;;;18.45;12.02;;;9.20;99.90;;;;;;5070823;28;20514;-70
2024/02/14 08:15:33;;;;;;;19.88;12.38;;;9.20;99.90;;;;;;5075201;28;20020;-70
2024/02/14 08:17:59;;;;;;;23.70;13.13;;;9.20;99.90;;;;;;5075207;28;20033;-70
2024/02/14 08:20:24;;;;;;;20.92;11.68;;;9.20;99.90;;;;;;5074518;28;20076;-70
2024/02/14 08:22:50;;;;;;;22.88;13.20;;;9.20;99.90;;;;;;5074802;28;20505;-70
2024/02/14 08:25:16;;;;;;;23.02;14.32;;;9.20;99.90;;;;;;5074576;28;20031;-69
2024/02/14 08:27:42;;;;;;;27.35;18.20;;;9.20;99.90;;;;;;5074743;28;20029;-70
2024/02/14 08:30:08;;;;;;;22.75;15.15;;;9.20;99.90;;;;;;5074910;28;20527;-70
2024/02/14 08:32:34;;;;;;;36.90;23.98;;;9.20;99.90;;;;;;5075194;28;20031;-70
2024/02/14 08:35:01;;;;;;;27.05;17.25;;;9.30;99.90;;;;;;5074947;28;20033;-70
2024/02/14 08:37:27;;;;;;;23.70;16.58;;;9.30;99.90;;;;;;5075098;28;20458;-70
2024/02/14 08:39:53;;;;;;;29.98;17.58;;;9.30;99.90;;;;;;5074009;28;20056;-70
2024/02/14 08:42:18;;;;;;;27.20;17.35;;;9.30;99.90;;;;;;5073967;28;20031;-71
2024/02/14 08:44:44;;;;;;;28.52;17.52;;;9.30;99.90;;;;;;5074151;28;20036;-71
2024/02/14 08:47:10;;;;;;;28.17;17.88;;;9.40;99.90;;;;;;5074526;28;20508;-71
2024/02/14 08:49:36;;;;;;;30.70;17.60;;;9.40;99.90;;;;;;5073751;28;20471;-71
2024/02/14 08:52:01;;;;;;;28.92;18.42;;;9.40;99.90;;;;;;5073592;28;20056;-70
2024/02/14 08:54:28;;;;;;;29.67;18.10;;;9.50;99.90;;;;;;5074639;28;20032;-71
2024/02/14 08:56:55;;;;;;;28.80;17.75;;;9.50;99.90;;;;;;5073788;28;20444;-71
2024/02/14 08:59:21;;;;;;;26.67;17.27;;;9.50;99.90;;;;;;5073379;28;20032;-69
2024/02/14 09:01:48;;;;;;;26.88;17.10;;;9.50;99.90;;;;;;5073864;28;20052;-71
2024/02/14 09:04:13;;;;;;;24.45;16.02;;;9.50;99.90;;;;;;5074354;28;20032;-72
2024/02/14 09:06:40;;;;;;;25.15;16.40;;;9.60;99.90;;;;;;5074085;28;20033;-70
2024/02/14 09:09:07;;;;;;;20.88;15.25;;;9.70;99.90;;;;;;5074557;28;20159;-71
2024/02/14 09:11:32;;;;;;;21.92;14.98;;;9.70;99.90;;;;;;5074317;28;20391;-70
2024/02/14 09:14:04;;;;;;;24.15;15.13;;;9.70;99.90;;;;;;5074136;28;20146;-71
2024/02/14 09:16:31;;;;;;;21.25;14.85;;;9.80;99.90;;;;;;5074135;28;20109;-73
2024/02/14 09:18:57;;;;;;;19.90;13.82;;;9.80;99.90;;;;;;5073940;28;20042;-71
2024/02/14 09:21:23;;;;;;;20.48;14.65;;;9.80;99.90;;;;;;5074100;28;20050;-70
2024/02/14 09:23:49;;;;;;;22.23;16.10;;;9.80;99.90;;;;;;5073719;28;20470;-70
2024/02/14 09:26:16;;;;;;;36.40;24.48;;;9.80;99.90;;;;;;5073543;28;20078;-70
2024/02/14 09:28:42;;;;;;;38.25;22.77;;;9.90;99.90;;;;;;5072857;28;20047;-70
2024/02/14 09:31:11;;;;;;;34.05;22.35;;;10.00;99.90;;;;;;5073814;28;20518;-70
2024/02/14 09:33:36;;;;;;;34.60;22.13;;;10.00;99.90;;;;;;5074073;28;20032;-70
2024/02/14 09:36:04;;;;;;;18.25;11.73;;;10.10;99.90;;;;;;5073804;28;20028;-71
2024/02/14 09:38:29;;;;;;;15.93;11.82;;;10.10;99.90;;;;;;5073613;28;20032;-70
2024/02/14 09:41:03;;;;;;;13.25;11.07;;;10.20;99.90;;;;;;5073427;28;20032;-71
2024/02/14 09:43:34;;;;;;;15.60;11.45;;;10.20;99.90;;;;;;5073472;28;20049;-71
2024/02/14 09:46:01;;;;;;;14.70;11.15;;;10.20;99.90;;;;;;5073773;28;20028;-72
2024/02/14 09:48:28;;;;;;;14.48;11.05;;;10.20;99.90;;;;;;5073740;28;20123;-71
2024/02/14 09:50:56;;;;;;;18.38;11.93;;;10.20;99.90;;;;;;5070610;28;20024;-71
2024/02/14 09:53:23;;;;;;;16.90;12.10;;;10.20;99.90;;;;;;5053570;28;20048;-72
2024/02/14 09:55:50;;;;;;;18.02;11.52;;;10.20;99.90;;;;;;5053525;28;20033;-72
2024/02/14 09:58:17;;;;;;;15.43;11.45;;;10.20;99.90;;;;;;5053624;28;20482;-71
2024/02/14 10:00:43;;;;;;;16.00;11.05;;;10.20;99.90;;;;;;5071126;28;20036;-71
2024/02/14 10:03:09;;;;;;;17.52;11.13;;;10.20;99.90;;;;;;5073316;28;20029;-71
2024/02/14 10:05:35;;;;;;;13.30;9.55;;;10.30;99.90;;;;;;5072322;28;20060;-70
2024/02/14 10:08:01;;;;;;;15.68;9.73;;;10.30;99.90;;;;;;5073486;28;20064;-71
2024/02/14 10:10:27;;;;;;;13.43;10.18;;;10.40;99.90;;;;;;5072572;28;20039;-72
2024/02/14 10:12:56;;;;;;;13.40;9.50;;;10.40;99.90;;;;;;5073341;28;20040;-71
2024/02/14 10:15:22;;;;;;;13.68;9.13;;;10.50;99.90;;;;;;5073361;28;20082;-71
2024/02/14 10:17:47;;;;;;;12.07;8.88;;;10.60;99.90;;;;;;5073137;28;20402;-71
2024/02/14 10:20:17;;;;;;;11.50;8.80;;;10.60;99.90;;;;;;5073045;28;20127;-71
2024/02/14 10:22:44;;;;;;;16.02;11.20;;;10.70;99.90;;;;;;5072147;28;20429;-71
2024/02/14 10:25:10;;;;;;;21.27;13.27;;;10.70;99.90;;;;;;5072515;28;20020;-71
2024/02/14 10:27:37;;;;;;;19.67;11.60;;;10.90;99.90;;;;;;5072900;28;20048;-72
2024/02/14 10:30:08;;;;;;;15.32;9.70;;;10.90;99.90;;;;;;5073215;28;20028;-71
2024/02/14 10:32:34;;;;;;;23.33;17.70;;;10.90;99.90;;;;;;5073276;28;20462;-71
2024/02/14 10:35:01;;;;;;;10.43;7.82;;;10.90;99.90;;;;;;5073162;28;20025;-71
2024/02/14 10:37:29;;;;;;;9.10;7.25;;;10.90;99.90;;;;;;5073098;28;20028;-72
2024/02/14 10:39:58;;;;;;;11.13;7.00;;;10.80;99.90;;;;;;5073095;28;20031;-71
2024/02/14 10:42:23;;;;;;;9.88;7.00;;;10.80;99.90;;;;;;5072553;28;20412;-70
2024/02/14 10:44:52;;;;;;;13.68;7.35;;;10.70;99.90;;;;;;5072776;28;20029;-71
2024/02/14 10:47:21;;;;;;;15.68;7.30;;;10.80;99.90;;;;;;5072611;28;20028;-71
2024/02/14 10:49:51;;;;;;;10.68;7.05;;;10.70;99.90;;;;;;5072811;28;20399;-71
2024/02/14 10:52:18;;;;;;;9.25;6.28;;;10.60;99.90;;;;;;5072842;28;20029;-71
2024/02/14 10:54:56;;;;;;;8.68;6.75;;;10.60;99.90;;;;;;5072957;28;20032;-71
2024/02/14 10:57:24;;;;;;;10.43;7.28;;;10.50;99.90;;;;;;5072879;28;20483;-72
2024/02/14 10:59:51;;;;;;;10.82;6.68;;;10.50;99.90;;;;;;5072823;28;20513;-71
2024/02/14 11:02:19;;;;;;;10.00;6.75;;;10.50;99.90;;;;;;5072410;28;20036;-72
2024/02/14 11:04:45;;;;;;;13.32;8.38;;;10.50;99.90;;;;;;5074633;28;20033;-71
2024/02/14 11:07:13;;;;;;;9.18;6.82;;;10.50;99.90;;;;;;5076384;28;20508;-71
2024/02/14 11:09:40;;;;;;;9.90;6.80;;;10.50;99.90;;;;;;5076532;28;20037;-71
2024/02/14 11:12:09;;;;;;;8.70;6.63;;;10.50;99.90;;;;;;5075426;28;20024;-71
2024/02/14 11:14:36;;;;;;;8.88;6.95;;;10.50;99.90;;;;;;5075906;28;20028;-71
2024/02/14 11:17:03;;;;;;;9.25;6.55;;;10.50;99.90;;;;;;5076318;28;20123;-73
2024/02/14 11:19:35;;;;;;;10.75;6.80;;;10.40;99.90;;;;;;5076247;28;20020;-71
2024/02/14 11:22:12;;;;;;;9.00;6.80;;;10.40;99.90;;;;;;5076123;28;20102;-72
2024/02/14 11:24:37;;;;;;;10.35;6.72;;;10.50;99.90;;;;;;5074118;28;20112;-72
2024/02/14 11:27:03;;;;;;;8.57;6.90;;;10.50;99.90;;;;;;5075700;28;20171;-72
2024/02/14 11:29:30;;;;;;;8.25;6.90;;;10.40;99.90;;;;;;5075511;28;20028;-72
2024/02/14 11:31:59;;;;;;;11.82;8.23;;;10.50;99.90;;;;;;5070738;28;20036;-71
2024/02/14 11:34:25;;;;;;;11.18;7.13;;;10.50;99.90;;;;;;5076141;28;20033;-72
2024/02/14 11:36:51;;;;;;;12.30;6.82;;;10.60;99.90;;;;;;5076063;28;20031;-72
2024/02/14 11:39:17;;;;;;;8.88;6.70;;;10.60;99.90;;;;;;5075850;28;20029;-72
2024/02/14 11:41:43;;;;;;;11.90;7.20;;;10.60;99.90;;;;;;5076339;28;20115;-70
2024/02/14 11:44:09;;;;;;;8.88;6.30;;;10.60;99.90;;;;;;5076136;28;20394;-70
2024/02/14 11:46:36;;;;;;;8.23;6.80;;;10.60;99.90;;;;;;5076104;28;20486;-70
2024/02/14 11:49:03;;;;;;;9.00;6.20;;;10.60;99.90;;;;;;5075884;28;20130;-72
2024/02/14 11:51:30;;;;;;;8.30;6.45;;;10.60;99.90;;;;;;5075970;28;20035;-71
2024/02/14 11:54:04;;;;;;;10.35;7.40;;;10.70;99.90;;;;;;5075895;28;20025;-71
2024/02/14 11:56:33;;;;;;;7.68;6.60;;;10.80;99.90;;;;;;5070490;28;20469;-70
2024/02/14 11:59:02;;;;;;;9.43;6.53;;;10.80;99.90;;;;;;5055893;28;20025;-71
2024/02/14 12:01:30;;;;;;;10.32;7.25;;;10.80;99.90;;;;;;5062018;28;20092;-72
2024/02/14 12:03:57;;;;;;;9.23;5.60;;;10.90;99.90;;;;;;5064065;28;20029;-71
2024/02/14 12:06:23;;;;;;;8.07;5.93;;;10.90;99.90;;;;;;5069120;28;20116;-71
2024/02/14 12:08:49;;;;;;;7.38;5.63;;;10.80;99.90;;;;;;5074965;28;20121;-71
2024/02/14 12:11:15;;;;;;;8.90;5.45;;;10.90;99.90;;;;;;5069059;28;20017;-70
2024/02/14 12:13:43;;;;;;;6.43;4.85;;;10.90;99.90;;;;;;5071062;28;20039;-71
2024/02/14 12:16:10;;;;;;;9.90;4.97;;;11.00;99.90;;;;;;5072581;28;20475;-71
2024/02/14 12:18:36;;;;;;;5.25;4.18;;;11.00;99.90;;;;;;5060503;28;20041;-70
2024/02/14 12:21:07;;;;;;;7.72;4.22;;;11.00;99.90;;;;;;5075248;28;20044;-71
2024/02/14 12:23:33;;;;;;;4.95;4.45;;;11.10;99.90;;;;;;5069048;28;20035;-71
2024/02/14 12:26:02;;;;;;;9.55;4.60;;;11.10;99.90;;;;;;5068787;28;20482;-71
2024/02/14 12:28:31;;;;;;;5.60;4.47;;;11.10;99.90;;;;;;5074812;28;20448;-71
2024/02/14 12:30:57;;;;;;;4.88;4.30;;;11.10;99.90;;;;;;5075064;28;20035;-71
2024/02/14 12:33:24;;;;;;;5.15;3.90;;;11.10;99.90;;;;;;5075262;28;20020;-72
2024/02/14 12:35:51;;;;;;;4.72;4.20;;;11.20;99.90;;;;;;5074849;28;20029;-71
2024/02/14 12:38:18;;;;;;;5.13;4.38;;;11.20;99.90;;;;;;5075150;28;20478;-71
2024/02/14 12:40:44;;;;;;;7.82;4.57;;;11.20;99.90;;;;;;5074818;28;20473;-71